sensor_id;sensor_type;location;lat;lon;timestamp;temperature;humidity
47368;DHT22;34646;47.964;7.982;2022-08-19T00:01:44;23.20;60.30
47368;DHT22;34646;47.964;7.982;2022-08-19T00:07:45;23.20;60.30
47368;DHT22;34646;47.964;7.982;2022-08-19T00:13:46;23.20;60.40
47368;DHT22;34646;47.964;7.982;2022-08-19T00:19:48;23.20;60.30
47368;DHT22;34646;47.964;7.982;2022-08-19T00:25:49;23.20;60.40
47368;DHT22;34646;47.964;7.982;2022-08-19T00:31:51;23.10;60.30
47368;DHT22;34646;47.964;7.982;2022-08-19T00:37:55;23.20;60.40
47368;DHT22;34646;47.964;7.982;2022-08-19T00:44:03;23.10;60.30
47368;DHT22;34646;47.964;7.982;2022-08-19T00:50:05;23.10;60.30
47368;DHT22;34646;47.964;7.982;2022-08-19T00:56:06;23.20;60.40
47368;DHT22;34646;47.964;7.982;2022-08-19T01:02:07;23.10;60.40
47368;DHT22;34646;47.964;7.982;2022-08-19T01:08:08;23.10;60.40
47368;DHT22;34646;47.964;7.982;2022-08-19T01:14:09;23.10;60.40
47368;DHT22;34646;47.964;7.982;2022-08-19T01:20:13;23.10;61.00
47368;DHT22;34646;47.964;7.982;2022-08-19T01:26:18;23.10;60.50
47368;DHT22;34646;47.964;7.982;2022-08-19T01:32:20;23.10;60.50
47368;DHT22;34646;47.964;7.982;2022-08-19T01:38:24;23.10;60.50
47368;DHT22;34646;47.964;7.982;2022-08-19T01:44:25;23.10;60.40
47368;DHT22;34646;47.964;7.982;2022-08-19T01:50:27;23.10;60.50
47368;DHT22;34646;47.964;7.982;2022-08-19T01:56:28;23.10;60.50
47368;DHT22;34646;47.964;7.982;2022-08-19T02:02:28;23.10;60.50
47368;DHT22;34646;47.964;7.982;2022-08-19T02:08:29;23.10;60.50
47368;DHT22;34646;47.964;7.982;2022-08-19T02:14:30;23.10;60.50
47368;DHT22;34646;47.964;7.982;2022-08-19T02:20:31;23.10;60.50
47368;DHT22;34646;47.964;7.982;2022-08-19T02:26:32;23.10;60.50
47368;DHT22;34646;47.964;7.982;2022-08-19T02:32:33;23.10;60.50
47368;DHT22;34646;47.964;7.982;2022-08-19T02:38:35;23.10;60.60
47368;DHT22;34646;47.964;7.982;2022-08-19T02:44:37;23.00;60.50
47368;DHT22;34646;47.964;7.982;2022-08-19T02:50:39;23.00;60.50
47368;DHT22;34646;47.964;7.982;2022-08-19T02:56:40;23.10;60.50
47368;DHT22;34646;47.964;7.982;2022-08-19T03:02:41;23.00;60.50
47368;DHT22;34646;47.964;7.982;2022-08-19T03:08:44;23.00;60.50
47368;DHT22;34646;47.964;7.982;2022-08-19T03:14:45;23.00;60.50
47368;DHT22;34646;47.964;7.982;2022-08-19T03:20:51;23.00;60.50
47368;DHT22;34646;47.964;7.982;2022-08-19T03:26:56;23.00;60.50
47368;DHT22;34646;47.964;7.982;2022-08-19T03:32:57;23.00;60.60
47368;DHT22;34646;47.964;7.982;2022-08-19T03:39:00;23.00;60.50
47368;DHT22;34646;47.964;7.982;2022-08-19T03:45:01;23.00;60.50
47368;DHT22;34646;47.964;7.982;2022-08-19T03:51:02;23.00;60.60
47368;DHT22;34646;47.964;7.982;2022-08-19T03:57:04;23.00;60.60
47368;DHT22;34646;47.964;7.982;2022-08-19T04:03:04;23.00;60.60
47368;DHT22;34646;47.964;7.982;2022-08-19T04:09:09;23.00;61.20
47368;DHT22;34646;47.964;7.982;2022-08-19T04:15:10;23.00;60.60
47368;DHT22;34646;47.964;7.982;2022-08-19T04:21:16;23.00;60.60
47368;DHT22;34646;47.964;7.982;2022-08-19T04:27:17;23.00;60.60
47368;DHT22;34646;47.964;7.982;2022-08-19T04:33:20;23.00;60.60
47368;DHT22;34646;47.964;7.982;2022-08-19T04:39:25;23.00;60.60
47368;DHT22;34646;47.964;7.982;2022-08-19T04:45:45;23.00;60.60
47368;DHT22;34646;47.964;7.982;2022-08-19T04:51:47;23.00;60.60
47368;DHT22;34646;47.964;7.982;2022-08-19T04:57:48;22.90;60.50
47368;DHT22;34646;47.964;7.982;2022-08-19T05:03:49;23.00;60.70
47368;DHT22;34646;47.964;7.982;2022-08-19T05:09:50;23.00;60.70
47368;DHT22;34646;47.964;7.982;2022-08-19T05:15:56;22.90;60.60
47368;DHT22;34646;47.964;7.982;2022-08-19T05:21:57;23.00;60.70
47368;DHT22;34646;47.964;7.982;2022-08-19T05:28:19;22.90;60.60
47368;DHT22;34646;47.964;7.982;2022-08-19T05:34:22;22.90;60.60
47368;DHT22;34646;47.964;7.982;2022-08-19T05:40:24;22.90;60.60
47368;DHT22;34646;47.964;7.982;2022-08-19T05:46:25;22.90;60.60
47368;DHT22;34646;47.964;7.982;2022-08-19T05:52:26;22.90;60.70
47368;DHT22;34646;47.964;7.982;2022-08-19T05:58:28;22.90;60.60
47368;DHT22;34646;47.964;7.982;2022-08-19T06:04:29;22.90;60.70
47368;DHT22;34646;47.964;7.982;2022-08-19T06:10:29;22.90;60.70
47368;DHT22;34646;47.964;7.982;2022-08-19T06:16:30;22.90;60.70
47368;DHT22;34646;47.964;7.982;2022-08-19T06:22:31;22.90;60.70
47368;DHT22;34646;47.964;7.982;2022-08-19T06:28:37;22.90;60.70
47368;DHT22;34646;47.964;7.982;2022-08-19T06:34:43;22.90;60.70
47368;DHT22;34646;47.964;7.982;2022-08-19T06:40:43;22.90;60.80
47368;DHT22;34646;47.964;7.982;2022-08-19T06:46:44;22.90;60.70
47368;DHT22;34646;47.964;7.982;2022-08-19T06:52:45;22.90;60.70
47368;DHT22;34646;47.964;7.982;2022-08-19T06:58:47;22.90;60.70
47368;DHT22;34646;47.964;7.982;2022-08-19T07:04:51;22.90;60.70
47368;DHT22;34646;47.964;7.982;2022-08-19T07:10:52;22.90;60.70
47368;DHT22;34646;47.964;7.982;2022-08-19T07:16:55;22.90;60.70
47368;DHT22;34646;47.964;7.982;2022-08-19T07:22:56;22.80;60.70
47368;DHT22;34646;47.964;7.982;2022-08-19T07:28:57;22.90;60.80
47368;DHT22;34646;47.964;7.982;2022-08-19T07:34:59;22.90;60.80
47368;DHT22;34646;47.964;7.982;2022-08-19T07:41:01;22.80;60.80
47368;DHT22;34646;47.964;7.982;2022-08-19T07:47:02;22.90;60.80
47368;DHT22;34646;47.964;7.982;2022-08-19T07:53:03;22.90;60.80
47368;DHT22;34646;47.964;7.982;2022-08-19T07:59:04;22.80;60.70
47368;DHT22;34646;47.964;7.982;2022-08-19T08:05:05;22.80;60.80
47368;DHT22;34646;47.964;7.982;2022-08-19T08:11:24;22.80;60.80
47368;DHT22;34646;47.964;7.982;2022-08-19T08:17:26;22.90;60.80
47368;DHT22;34646;47.964;7.982;2022-08-19T08:23:27;22.80;60.80
47368;DHT22;34646;47.964;7.982;2022-08-19T08:29:30;22.80;60.80
47368;DHT22;34646;47.964;7.982;2022-08-19T08:35:31;22.80;60.80
47368;DHT22;34646;47.964;7.982;2022-08-19T08:41:46;22.80;60.90
47368;DHT22;34646;47.964;7.982;2022-08-19T08:47:52;22.80;60.90
47368;DHT22;34646;47.964;7.982;2022-08-19T08:53:55;22.80;60.90
47368;DHT22;34646;47.964;7.982;2022-08-19T08:59:57;22.80;60.80
47368;DHT22;34646;47.964;7.982;2022-08-19T09:06:10;22.80;60.80
47368;DHT22;34646;47.964;7.982;2022-08-19T09:12:35;22.80;60.80
47368;DHT22;34646;47.964;7.982;2022-08-19T09:18:51;22.80;60.90
47368;DHT22;34646;47.964;7.982;2022-08-19T09:24:55;22.80;60.90
47368;DHT22;34646;47.964;7.982;2022-08-19T09:30:56;22.80;60.90
47368;DHT22;34646;47.964;7.982;2022-08-19T09:36:57;22.80;60.90
47368;DHT22;34646;47.964;7.982;2022-08-19T09:42:59;22.80;60.90
47368;DHT22;34646;47.964;7.982;2022-08-19T09:49:03;22.80;60.90
47368;DHT22;34646;47.964;7.982;2022-08-19T09:55:08;22.80;61.00
47368;DHT22;34646;47.964;7.982;2022-08-19T10:01:11;22.80;61.00
47368;DHT22;34646;47.964;7.982;2022-08-19T10:07:15;22.80;61.00
47368;DHT22;34646;47.964;7.982;2022-08-19T10:13:19;22.80;61.00
47368;DHT22;34646;47.964;7.982;2022-08-19T10:19:23;22.80;61.00
47368;DHT22;34646;47.964;7.982;2022-08-19T10:25:25;22.80;61.10
47368;DHT22;34646;47.964;7.982;2022-08-19T10:31:29;22.80;61.10
47368;DHT22;34646;47.964;7.982;2022-08-19T10:37:30;22.80;61.20
47368;DHT22;34646;47.964;7.982;2022-08-19T10:43:32;22.80;61.20
47368;DHT22;34646;47.964;7.982;2022-08-19T10:49:34;22.80;61.30
47368;DHT22;34646;47.964;7.982;2022-08-19T10:55:55;22.80;61.30
47368;DHT22;34646;47.964;7.982;2022-08-19T11:02:14;22.80;61.30
47368;DHT22;34646;47.964;7.982;2022-08-19T11:08:15;22.80;61.30
47368;DHT22;34646;47.964;7.982;2022-08-19T11:14:17;22.80;61.20
47368;DHT22;34646;47.964;7.982;2022-08-19T11:20:21;22.80;61.20
47368;DHT22;34646;47.964;7.982;2022-08-19T11:26:24;22.80;61.20
47368;DHT22;34646;47.964;7.982;2022-08-19T11:32:25;22.80;61.30
47368;DHT22;34646;47.964;7.982;2022-08-19T11:38:27;22.80;61.30
47368;DHT22;34646;47.964;7.982;2022-08-19T11:44:27;22.80;61.40
47368;DHT22;34646;47.964;7.982;2022-08-19T11:50:30;22.80;61.60
47368;DHT22;34646;47.964;7.982;2022-08-19T11:56:31;22.80;61.70
47368;DHT22;34646;47.964;7.982;2022-08-19T12:02:32;22.80;61.70
47368;DHT22;34646;47.964;7.982;2022-08-19T12:08:33;22.80;61.80
47368;DHT22;34646;47.964;7.982;2022-08-19T12:14:34;22.80;61.90
47368;DHT22;34646;47.964;7.982;2022-08-19T12:20:36;22.90;61.90
47368;DHT22;34646;47.964;7.982;2022-08-19T12:26:37;22.80;62.00
47368;DHT22;34646;47.964;7.982;2022-08-19T12:32:39;22.80;62.20
47368;DHT22;34646;47.964;7.982;2022-08-19T12:38:40;22.80;62.40
47368;DHT22;34646;47.964;7.982;2022-08-19T12:44:42;22.90;62.50
47368;DHT22;34646;47.964;7.982;2022-08-19T12:50:44;22.90;62.40
47368;DHT22;34646;47.964;7.982;2022-08-19T12:56:48;22.90;62.80
47368;DHT22;34646;47.964;7.982;2022-08-19T13:02:51;22.90;62.70
47368;DHT22;34646;47.964;7.982;2022-08-19T13:08:52;22.90;62.80
47368;DHT22;34646;47.964;7.982;2022-08-19T13:14:53;22.90;62.90
47368;DHT22;34646;47.964;7.982;2022-08-19T13:20:54;22.90;63.00
47368;DHT22;34646;47.964;7.982;2022-08-19T13:26:54;22.90;63.10
47368;DHT22;34646;47.964;7.982;2022-08-19T13:32:55;22.90;63.20
47368;DHT22;34646;47.964;7.982;2022-08-19T13:39:12;22.90;63.10
47368;DHT22;34646;47.964;7.982;2022-08-19T13:45:14;22.90;63.00
47368;DHT22;34646;47.964;7.982;2022-08-19T13:51:17;22.90;63.00
47368;DHT22;34646;47.964;7.982;2022-08-19T13:57:17;22.90;63.00
47368;DHT22;34646;47.964;7.982;2022-08-19T14:03:18;22.90;63.10
47368;DHT22;34646;47.964;7.982;2022-08-19T14:09:19;23.00;63.20
47368;DHT22;34646;47.964;7.982;2022-08-19T14:15:19;23.00;63.10
47368;DHT22;34646;47.964;7.982;2022-08-19T14:21:21;23.00;63.20
47368;DHT22;34646;47.964;7.982;2022-08-19T14:27:24;23.00;63.20
47368;DHT22;34646;47.964;7.982;2022-08-19T14:33:25;23.00;63.30
47368;DHT22;34646;47.964;7.982;2022-08-19T14:39:26;23.00;63.20
47368;DHT22;34646;47.964;7.982;2022-08-19T14:45:27;23.00;63.20
47368;DHT22;34646;47.964;7.982;2022-08-19T14:51:28;23.00;63.10
47368;DHT22;34646;47.964;7.982;2022-08-19T14:57:29;23.00;63.00
47368;DHT22;34646;47.964;7.982;2022-08-19T15:03:30;23.00;62.90
47368;DHT22;34646;47.964;7.982;2022-08-19T15:09:32;23.00;62.80
47368;DHT22;34646;47.964;7.982;2022-08-19T15:15:33;23.00;62.80
47368;DHT22;34646;47.964;7.982;2022-08-19T15:21:34;23.00;62.60
47368;DHT22;34646;47.964;7.982;2022-08-19T15:27:34;23.00;62.40
47368;DHT22;34646;47.964;7.982;2022-08-19T15:33:36;23.00;62.30
47368;DHT22;34646;47.964;7.982;2022-08-19T15:39:37;23.00;62.30
47368;DHT22;34646;47.964;7.982;2022-08-19T15:45:37;23.00;62.20
47368;DHT22;34646;47.964;7.982;2022-08-19T15:51:41;23.00;62.00
47368;DHT22;34646;47.964;7.982;2022-08-19T15:57:42;23.00;62.00
47368;DHT22;34646;47.964;7.982;2022-08-19T16:04:15;23.00;62.00
47368;DHT22;34646;47.964;7.982;2022-08-19T16:10:46;23.00;62.00
47368;DHT22;34646;47.964;7.982;2022-08-19T16:16:47;23.00;62.00
47368;DHT22;34646;47.964;7.982;2022-08-19T16:22:48;23.00;62.10
47368;DHT22;34646;47.964;7.982;2022-08-19T16:28:48;23.00;62.00
47368;DHT22;34646;47.964;7.982;2022-08-19T16:34:49;23.00;62.00
47368;DHT22;34646;47.964;7.982;2022-08-19T16:40:50;23.00;62.00
47368;DHT22;34646;47.964;7.982;2022-08-19T16:46:53;22.90;61.80
47368;DHT22;34646;47.964;7.982;2022-08-19T16:52:54;22.90;61.90
47368;DHT22;34646;47.964;7.982;2022-08-19T16:58:56;23.00;61.80
47368;DHT22;34646;47.964;7.982;2022-08-19T17:04:59;23.00;61.90
47368;DHT22;34646;47.964;7.982;2022-08-19T17:11:00;23.00;62.20
47368;DHT22;34646;47.964;7.982;2022-08-19T17:17:02;23.00;62.30
47368;DHT22;34646;47.964;7.982;2022-08-19T17:23:03;23.00;62.50
47368;DHT22;34646;47.964;7.982;2022-08-19T17:29:04;23.00;63.10
47368;DHT22;34646;47.964;7.982;2022-08-19T17:35:05;23.00;62.40
47368;DHT22;34646;47.964;7.982;2022-08-19T17:41:06;23.10;62.70
47368;DHT22;34646;47.964;7.982;2022-08-19T17:47:07;23.00;62.60
47368;DHT22;34646;47.964;7.982;2022-08-19T17:53:07;23.00;62.70
47368;DHT22;34646;47.964;7.982;2022-08-19T17:59:08;23.00;62.50
47368;DHT22;34646;47.964;7.982;2022-08-19T18:05:09;23.00;62.00
47368;DHT22;34646;47.964;7.982;2022-08-19T18:11:10;23.00;62.10
47368;DHT22;34646;47.964;7.982;2022-08-19T18:17:13;23.00;62.00
47368;DHT22;34646;47.964;7.982;2022-08-19T18:23:16;23.00;61.90
47368;DHT22;34646;47.964;7.982;2022-08-19T18:29:16;23.00;61.80
47368;DHT22;34646;47.964;7.982;2022-08-19T18:35:23;23.00;61.70
47368;DHT22;34646;47.964;7.982;2022-08-19T18:41:25;23.00;61.70
47368;DHT22;34646;47.964;7.982;2022-08-19T18:47:44;23.00;61.70
47368;DHT22;34646;47.964;7.982;2022-08-19T18:54:04;23.00;61.60
47368;DHT22;34646;47.964;7.982;2022-08-19T19:00:05;23.00;61.60
47368;DHT22;34646;47.964;7.982;2022-08-19T19:06:06;23.00;61.60
47368;DHT22;34646;47.964;7.982;2022-08-19T19:12:10;23.00;61.60
47368;DHT22;34646;47.964;7.982;2022-08-19T19:18:10;23.00;61.60
47368;DHT22;34646;47.964;7.982;2022-08-19T19:24:17;22.90;61.50
47368;DHT22;34646;47.964;7.982;2022-08-19T19:30:20;22.90;61.50
47368;DHT22;34646;47.964;7.982;2022-08-19T19:36:25;22.90;61.50
47368;DHT22;34646;47.964;7.982;2022-08-19T19:42:25;22.90;62.10
47368;DHT22;34646;47.964;7.982;2022-08-19T19:48:26;22.90;61.40
47368;DHT22;34646;47.964;7.982;2022-08-19T19:54:28;23.00;61.50
47368;DHT22;34646;47.964;7.982;2022-08-19T20:00:29;22.90;61.50
47368;DHT22;34646;47.964;7.982;2022-08-19T20:06:30;22.90;61.40
47368;DHT22;34646;47.964;7.982;2022-08-19T20:12:30;22.90;61.40
47368;DHT22;34646;47.964;7.982;2022-08-19T20:18:32;22.90;61.50
47368;DHT22;34646;47.964;7.982;2022-08-19T20:24:34;22.90;61.40
47368;DHT22;34646;47.964;7.982;2022-08-19T20:30:35;22.90;61.40
47368;DHT22;34646;47.964;7.982;2022-08-19T20:36:36;22.90;61.40
47368;DHT22;34646;47.964;7.982;2022-08-19T20:42:39;22.90;61.40
47368;DHT22;34646;47.964;7.982;2022-08-19T20:48:41;22.90;61.40
47368;DHT22;34646;47.964;7.982;2022-08-19T20:54:42;22.90;61.40
47368;DHT22;34646;47.964;7.982;2022-08-19T21:00:44;22.90;61.40
47368;DHT22;34646;47.964;7.982;2022-08-19T21:06:45;22.90;61.40
47368;DHT22;34646;47.964;7.982;2022-08-19T21:12:46;22.90;61.30
47368;DHT22;34646;47.964;7.982;2022-08-19T21:18:46;22.90;61.30
47368;DHT22;34646;47.964;7.982;2022-08-19T21:24:47;22.90;61.40
47368;DHT22;34646;47.964;7.982;2022-08-19T21:30:48;22.90;61.30
47368;DHT22;34646;47.964;7.982;2022-08-19T21:36:49;22.90;61.30
47368;DHT22;34646;47.964;7.982;2022-08-19T21:42:50;22.90;61.30
47368;DHT22;34646;47.964;7.982;2022-08-19T21:48:51;22.90;61.30
47368;DHT22;34646;47.964;7.982;2022-08-19T21:54:53;22.90;61.30
47368;DHT22;34646;47.964;7.982;2022-08-19T22:00:54;22.90;61.30
47368;DHT22;34646;47.964;7.982;2022-08-19T22:06:54;22.80;61.20
47368;DHT22;34646;47.964;7.982;2022-08-19T22:12:55;22.80;61.20
47368;DHT22;34646;47.964;7.982;2022-08-19T22:18:56;22.90;61.20
47368;DHT22;34646;47.964;7.982;2022-08-19T22:25:06;22.80;61.20
47368;DHT22;34646;47.964;7.982;2022-08-19T22:31:08;22.80;61.20
47368;DHT22;34646;47.964;7.982;2022-08-19T22:37:09;22.80;61.20
47368;DHT22;34646;47.964;7.982;2022-08-19T22:43:15;22.80;61.20
47368;DHT22;34646;47.964;7.982;2022-08-19T22:49:16;22.80;61.20
47368;DHT22;34646;47.964;7.982;2022-08-19T22:55:17;22.80;61.20
47368;DHT22;34646;47.964;7.982;2022-08-19T23:01:19;22.80;61.20
47368;DHT22;34646;47.964;7.982;2022-08-19T23:07:21;22.80;61.20
47368;DHT22;34646;47.964;7.982;2022-08-19T23:13:22;22.80;61.20
47368;DHT22;34646;47.964;7.982;2022-08-19T23:19:23;22.80;61.20
47368;DHT22;34646;47.964;7.982;2022-08-19T23:25:29;22.80;61.20
47368;DHT22;34646;47.964;7.982;2022-08-19T23:31:30;22.80;61.20
47368;DHT22;34646;47.964;7.982;2022-08-19T23:37:31;22.80;61.20
47368;DHT22;34646;47.964;7.982;2022-08-19T23:43:33;22.80;61.20
47368;DHT22;34646;47.964;7.982;2022-08-19T23:49:34;22.80;61.20
47368;DHT22;34646;47.964;7.982;2022-08-19T23:55:37;22.80;61.20
